Green Bay (GRB/KGRB)

Map

Destinations

Information

Location
Green Bay, WI
Local Time
20:49 / 8:49 pm
GMT Time
02:49 / 2:49 am
Gates
Unassigned
No FAA reported delays
METAR KGRB 170201Z 05007KT 2 1/2SM FZRA BR BKN006 OVC032 01/M01 A3008 RMK AO2 I1001 T00061006 PNO $
TAF KGRB 170129Z 1701/1724 05007KT 3SM -FZRA BR SCT025 OVC035 FM170300 06004KT 3SM -FZRA BR OVC024 FM170600 03009KT 1 1/2SM -FZRA BR OVC006 FM171500 01009KT 2SM -FZRA BR OVC010 FM171900 33007KT P6SM BKN030
  • No charts available